Time;durP1;ratioP1;P1;durP2;ratioP2;P2;SDS_P1;SDS_P2;PMS_P1;PMS_P2;Temp;Humidity;BMP_temperature;BMP_pressure;BME280_temperature;BME280_humidity;BME280_pressure;Samples;Min_cycle;Max_cycle;Signal;HPM_P1;HPM_P2
2021/09/08 00:00:38;;;;;;;2.47;1.52;;;;;;;13.08;83.18;95877.84;5096909;28;20425;-76
2021/09/08 00:03:05;;;;;;;2.22;1.48;;;;;;;13.07;82.81;95885.91;5094484;28;20047;-76
2021/09/08 00:05:35;;;;;;;2.03;1.55;;;;;;;13.03;83.34;95885.56;5097038;28;20035;-76
2021/09/08 00:08:03;;;;;;;2.80;1.65;;;;;;;12.96;83.54;95895.28;5091657;28;20047;-76
2021/09/08 00:10:30;;;;;;;3.22;1.73;;;;;;;12.98;82.99;95885.41;5101080;28;20040;-76
2021/09/08 00:12:57;;;;;;;1.92;1.60;;;;;;;12.81;84.13;95888.63;5098871;28;20035;-76
2021/09/08 00:15:24;;;;;;;5.25;2.50;;;;;;;12.80;84.00;95881.00;5098085;28;20042;-76
2021/09/08 00:17:51;;;;;;;2.08;1.52;;;;;;;12.77;84.29;95878.84;5095436;28;20035;-77
2021/09/08 00:20:18;;;;;;;2.53;1.60;;;;;;;12.74;84.59;95890.50;5091311;28;20525;-77
2021/09/08 00:22:45;;;;;;;3.63;2.22;;;;;;;12.79;84.06;95888.03;5097330;28;20048;-76
2021/09/08 00:25:13;;;;;;;3.35;2.17;;;;;;;12.76;83.60;95885.88;5101065;28;20058;-76
2021/09/08 00:27:40;;;;;;;3.22;1.95;;;;;;;12.76;84.29;95888.47;5094357;28;20048;-74
2021/09/08 00:30:08;;;;;;;3.00;1.77;;;;;;;12.75;84.42;95886.91;5097061;28;20055;-76
2021/09/08 00:32:36;;;;;;;1.35;1.23;;;;;;;12.82;83.55;95885.00;5097941;28;20096;-77
2021/09/08 00:35:05;;;;;;;4.38;2.53;;;;;;;12.87;82.83;95886.94;5097865;28;20051;-76
2021/09/08 00:37:33;;;;;;;1.88;1.50;;;;;;;12.77;83.67;95895.31;5093324;28;20081;-77
2021/09/08 00:39:59;;;;;;;1.85;1.50;;;;;;;12.76;83.98;95891.09;5098138;28;20044;-76
2021/09/08 00:42:28;;;;;;;2.00;1.70;;;;;;;12.80;83.61;95887.03;5098864;28;20078;-76
2021/09/08 00:44:56;;;;;;;1.67;1.23;;;;;;;12.77;83.56;95882.25;5089823;28;20135;-77
2021/09/08 00:47:23;;;;;;;3.13;1.45;;;;;;;12.73;83.85;95881.09;5096761;28;20035;-76
2021/09/08 00:49:50;;;;;;;1.77;1.30;;;;;;;12.64;84.34;95877.16;5095607;28;20489;-77
2021/09/08 00:52:17;;;;;;;1.58;1.35;;;;;;;12.63;84.78;95881.56;5095986;28;20088;-77
2021/09/08 00:54:48;;;;;;;2.35;1.60;;;;;;;12.57;84.76;95866.00;5097602;28;20384;-76
2021/09/08 00:57:20;;;;;;;2.65;1.50;;;;;;;12.60;85.38;95870.75;5095085;28;20060;-76
2021/09/08 00:59:48;;;;;;;1.80;1.45;;;;;;;12.64;85.13;95866.72;5094863;28;20464;-77
2021/09/08 01:02:16;;;;;;;3.00;1.83;;;;;;;12.59;85.46;95853.50;5094999;28;20047;-76
2021/09/08 01:04:45;;;;;;;1.40;1.27;;;;;;;12.68;85.46;95867.88;5098378;28;20040;-77
2021/09/08 01:07:13;;;;;;;3.85;1.40;;;;;;;12.70;85.72;95871.06;5097955;28;20474;-76
2021/09/08 01:09:40;;;;;;;2.20;1.65;;;;;;;12.70;85.11;95862.44;5095497;28;20040;-76
2021/09/08 01:12:10;;;;;;;3.45;1.80;;;;;;;12.67;85.94;95866.25;5090379;28;20123;-77
2021/09/08 01:14:42;;;;;;;3.47;2.15;;;;;;;12.61;86.61;95867.16;5101340;28;20043;-76
2021/09/08 01:17:09;;;;;;;2.42;1.70;;;;;;;12.62;86.89;95858.28;5098784;28;20051;-76
2021/09/08 01:19:37;;;;;;;2.28;1.48;;;;;;;12.63;85.83;95859.88;5093358;28;20036;-77
2021/09/08 01:22:04;;;;;;;3.42;2.25;;;;;;;12.69;86.20;95853.78;5097673;28;21094;-76
2021/09/08 01:24:30;;;;;;;2.83;1.75;;;;;;;12.69;86.07;95855.59;5096386;28;20039;-77
2021/09/08 01:26:58;;;;;;;7.72;2.38;;;;;;;12.61;86.29;95856.69;5099966;28;20052;-76
2021/09/08 01:29:25;;;;;;;1.70;1.30;;;;;;;12.65;86.54;95857.06;5082296;28;20047;-77
2021/09/08 01:31:56;;;;;;;2.75;1.52;;;;;;;12.65;86.27;95852.63;5098859;28;20569;-77
2021/09/08 01:34:23;;;;;;;2.20;1.60;;;;;;;12.63;86.09;95854.66;5094625;28;20047;-76
2021/09/08 01:36:51;;;;;;;2.17;1.85;;;;;;;12.54;86.22;95851.53;5096131;28;20040;-76
2021/09/08 01:39:21;;;;;;;4.85;2.92;;;;;;;12.63;86.16;95850.22;5099513;28;20455;-77
2021/09/08 01:41:49;;;;;;;1.88;1.30;;;;;;;12.74;86.42;95856.53;5095046;28;20755;-76
2021/09/08 01:44:20;;;;;;;1.50;1.35;;;;;;;12.75;86.06;95852.91;5093248;28;20790;-76
2021/09/08 01:46:49;;;;;;;2.53;1.60;;;;;;;12.73;86.43;95849.72;5098786;28;20048;-76
2021/09/08 01:49:16;;;;;;;2.17;1.23;;;;;;;12.79;85.45;95861.13;5098972;28;20413;-77
2021/09/08 01:51:43;;;;;;;1.73;1.58;;;;;;;12.81;85.33;95844.19;5096190;28;20044;-76
2021/09/08 01:54:10;;;;;;;2.55;1.30;;;;;;;12.90;85.54;95849.91;5098559;28;20047;-76
2021/09/08 01:56:37;;;;;;;1.27;0.95;;;;;;;12.95;85.33;95851.88;5099857;28;20047;-76
2021/09/08 01:59:04;;;;;;;2.28;1.45;;;;;;;12.94;85.35;95845.03;5098467;28;20416;-76
2021/09/08 02:01:31;;;;;;;2.55;1.40;;;;;;;12.99;84.47;95843.34;5102504;28;20051;-76
2021/09/08 02:03:58;;;;;;;2.75;1.80;;;;;;;13.03;84.60;95845.53;5102713;28;20040;-77
2021/09/08 02:06:28;;;;;;;2.00;1.23;;;;;;;12.99;84.55;95843.34;5098775;28;20047;-77
2021/09/08 02:08:59;;;;;;;2.13;1.17;;;;;;;12.94;85.97;95850.28;5097196;28;20057;-76
2021/09/08 02:11:27;;;;;;;1.75;1.10;;;;;;;12.97;85.24;95839.38;5100682;28;20073;-77
2021/09/08 02:13:54;;;;;;;1.52;1.40;;;;;;;13.02;84.75;95842.13;5100186;28;20074;-76
2021/09/08 02:16:21;;;;;;;2.30;1.40;;;;;;;12.96;84.85;95837.78;5100812;28;20040;-77
2021/09/08 02:18:50;;;;;;;2.17;1.17;;;;;;;13.00;85.12;95838.94;5097961;28;20088;-77
2021/09/08 02:21:17;;;;;;;2.47;1.30;;;;;;;12.99;84.51;95837.34;5099234;28;20044;-76
2021/09/08 02:23:44;;;;;;;5.05;1.45;;;;;;;13.07;84.26;95838.84;5096013;28;20512;-76
2021/09/08 02:26:11;;;;;;;5.10;1.45;;;;;;;13.11;84.03;95829.56;5098925;28;20122;-76
2021/09/08 02:28:38;;;;;;;2.67;1.35;;;;;;;13.17;83.36;95824.22;5097805;28;20086;-76
2021/09/08 02:31:06;;;;;;;1.38;1.13;;;;;;;13.21;83.24;95829.78;5101421;28;20101;-77
2021/09/08 02:33:33;;;;;;;2.28;1.58;;;;;;;13.08;83.08;95830.00;5104666;28;20073;-77
2021/09/08 02:36:00;;;;;;;1.02;0.90;;;;;;;12.90;83.88;95822.97;5097683;28;20049;-77
2021/09/08 02:38:27;;;;;;;1.40;1.00;;;;;;;12.99;83.78;95821.66;5100230;28;20031;-76
2021/09/08 02:40:54;;;;;;;1.15;0.90;;;;;;;12.95;83.19;95820.50;5095642;28;20044;-76
2021/09/08 02:43:20;;;;;;;2.40;1.20;;;;;;;12.99;83.53;95819.03;5098932;28;20047;-77
2021/09/08 02:45:47;;;;;;;1.40;0.95;;;;;;;12.87;83.54;95812.94;5101135;28;20043;-77
2021/09/08 02:48:14;;;;;;;2.60;1.65;;;;;;;12.82;83.86;95816.25;5102214;28;20040;-74
2021/09/08 02:50:41;;;;;;;1.65;1.10;;;;;;;12.71;84.51;95815.16;5100862;28;20047;-76
2021/09/08 02:53:08;;;;;;;1.52;1.17;;;;;;;12.71;84.35;95812.56;5100343;28;20041;-77
2021/09/08 02:55:34;;;;;;;1.30;1.10;;;;;;;12.73;84.27;95813.13;5095897;28;20090;-76
2021/09/08 02:58:01;;;;;;;3.72;1.15;;;;;;;12.61;84.93;95814.88;5092668;28;20044;-76
2021/09/08 03:00:28;;;;;;;2.42;1.40;;;;;;;12.58;84.62;95804.84;5096036;28;20126;-76
2021/09/08 03:02:55;;;;;;;1.60;1.30;;;;;;;12.65;84.61;95810.81;5095472;28;20047;-76
2021/09/08 03:05:22;;;;;;;1.75;1.05;;;;;;;12.57;84.84;95803.28;5097925;28;20047;-77
2021/09/08 03:07:49;;;;;;;1.13;1.00;;;;;;;12.65;84.13;95816.03;5101785;28;20039;-77
2021/09/08 03:10:16;;;;;;;2.35;1.35;;;;;;;12.51;84.34;95798.91;5098032;28;20133;-77
2021/09/08 03:12:42;;;;;;;3.53;1.38;;;;;;;12.51;84.60;95804.13;5095678;28;20036;-77
2021/09/08 03:15:09;;;;;;;1.60;1.25;;;;;;;12.43;85.01;95813.06;5096264;28;20040;-77
2021/09/08 03:17:37;;;;;;;1.60;1.00;;;;;;;12.33;84.91;95803.13;5099284;28;20118;-77
2021/09/08 03:20:05;;;;;;;1.10;1.00;;;;;;;12.31;85.35;95805.16;5093579;28;20073;-77
2021/09/08 03:22:32;;;;;;;2.05;1.35;;;;;;;12.32;84.78;95805.97;5097723;28;20085;-76
2021/09/08 03:24:59;;;;;;;4.32;1.50;;;;;;;12.33;84.38;95808.34;5095551;28;20089;-77
2021/09/08 03:27:26;;;;;;;1.67;1.05;;;;;;;12.31;85.07;95805.16;5093886;28;20052;-77
2021/09/08 03:29:52;;;;;;;1.92;1.17;;;;;;;12.29;84.19;95798.56;5089017;28;20036;-75
2021/09/08 03:32:19;;;;;;;1.77;1.63;;;;;;;12.27;85.87;95804.00;5095573;28;20557;-77
2021/09/08 03:34:46;;;;;;;1.75;1.30;;;;;;;12.05;86.63;95807.03;5097530;28;20044;-77
2021/09/08 03:37:12;;;;;;;1.70;1.27;;;;;;;12.00;87.10;95801.66;5100695;28;20092;-77
2021/09/08 03:39:39;;;;;;;1.42;1.20;;;;;;;11.98;87.62;95811.50;5095518;28;20051;-77
2021/09/08 03:42:06;;;;;;;1.63;1.20;;;;;;;11.97;87.16;95815.13;5100889;28;20040;-77
2021/09/08 03:44:33;;;;;;;5.78;1.55;;;;;;;11.96;87.05;95808.31;5094623;28;20409;-77
2021/09/08 03:47:00;;;;;;;2.92;1.17;;;;;;;11.87;87.17;95799.13;5098585;28;20093;-77
2021/09/08 03:49:26;;;;;;;1.70;0.98;;;;;;;11.83;87.86;95808.41;5102273;28;20039;-77
2021/09/08 03:51:54;;;;;;;2.15;1.58;;;;;;;11.83;87.84;95811.03;5096117;28;20404;-77
2021/09/08 03:54:21;;;;;;;2.00;0.98;;;;;;;11.89;87.37;95818.00;5093369;28;20044;-77
2021/09/08 03:56:48;;;;;;;2.33;0.95;;;;;;;11.90;86.77;95813.56;5094705;28;20043;-77
2021/09/08 03:59:15;;;;;;;3.08;1.05;;;;;;;11.92;86.72;95815.00;5093260;28;20048;-78
2021/09/08 04:01:42;;;;;;;1.65;1.35;;;;;;;11.93;86.60;95813.97;5094515;28;20047;-77
2021/09/08 04:04:09;;;;;;;2.10;0.90;;;;;;;11.85;87.45;95812.41;5092517;28;20032;-77
2021/09/08 04:06:37;;;;;;;2.85;1.20;;;;;;;11.86;86.82;95816.59;5097736;28;20040;-77
2021/09/08 04:09:06;;;;;;;1.80;1.25;;;;;;;11.92;87.02;95817.59;5098842;28;20071;-77
2021/09/08 04:11:33;;;;;;;2.88;0.88;;;;;;;11.91;86.83;95810.78;5093056;28;20429;-77
2021/09/08 04:14:00;;;;;;;1.52;1.05;;;;;;;11.94;88.73;95810.34;5094733;28;20036;-77
2021/09/08 04:16:26;;;;;;;2.45;1.23;;;;;;;12.01;88.75;95805.03;5095944;28;20398;-77
2021/09/08 04:18:53;;;;;;;3.05;0.77;;;;;;;11.99;88.93;95796.63;5098540;28;20059;-77
2021/09/08 04:21:20;;;;;;;4.28;1.50;;;;;;;12.02;88.35;95802.22;5098933;28;20040;-77
2021/09/08 04:23:47;;;;;;;9.00;1.20;;;;;;;12.08;87.67;95810.22;5098736;28;20043;-77
2021/09/08 04:26:14;;;;;;;1.52;1.30;;;;;;;12.03;87.85;95813.50;5100968;28;20039;-77
2021/09/08 04:28:40;;;;;;;6.20;1.10;;;;;;;12.12;87.19;95817.41;5096003;28;20035;-77
2021/09/08 04:31:07;;;;;;;5.38;1.25;;;;;;;12.18;87.05;95818.34;5094803;28;20040;-77
2021/09/08 04:33:34;;;;;;;2.33;1.48;;;;;;;12.17;86.83;95814.13;5091642;28;20039;-77
2021/09/08 04:36:01;;;;;;;2.22;1.00;;;;;;;12.14;87.71;95819.81;5093213;28;20097;-77
2021/09/08 04:38:28;;;;;;;3.90;1.33;;;;;;;12.21;87.24;95825.78;5095890;28;20101;-77
2021/09/08 04:40:56;;;;;;;2.33;1.15;;;;;;;12.22;87.11;95822.91;5098559;28;20071;-77
2021/09/08 04:43:23;;;;;;;2.70;1.17;;;;;;;12.23;86.81;95821.13;5094771;28;20098;-77
2021/09/08 04:45:50;;;;;;;7.55;1.55;;;;;;;12.20;87.17;95818.94;5092859;28;20454;-76
2021/09/08 04:48:16;;;;;;;2.95;1.75;;;;;;;12.15;87.96;95821.41;5092810;28;20047;-77
2021/09/08 04:50:43;;;;;;;1.40;1.20;;;;;;;12.19;87.56;95822.53;5094066;28;20044;-78
2021/09/08 04:53:10;;;;;;;1.88;1.10;;;;;;;12.21;87.90;95825.78;5090167;28;20040;-77
2021/09/08 04:55:36;;;;;;;2.28;1.23;;;;;;;12.27;87.64;95829.31;5100167;28;20044;-77
2021/09/08 04:58:03;;;;;;;1.50;1.23;;;;;;;12.20;88.74;95824.94;5095452;28;20089;-77
2021/09/08 05:00:30;;;;;;;2.22;1.13;;;;;;;12.18;88.30;95820.97;5092546;28;20040;-77
2021/09/08 05:02:57;;;;;;;2.90;1.63;;;;;;;12.23;89.13;95824.53;5094051;28;20040;-77
2021/09/08 05:05:24;;;;;;;0.98;0.88;;;;;;;12.26;88.37;95827.72;5103684;28;20044;-77
2021/09/08 05:07:51;;;;;;;1.67;1.00;;;;;;;12.28;88.21;95823.88;5095402;28;20039;-77
2021/09/08 05:10:18;;;;;;;1.67;0.98;;;;;;;12.32;88.87;95822.44;5093961;28;20085;-77
2021/09/08 05:12:44;;;;;;;1.08;0.80;;;;;;;12.45;87.81;95831.16;5093985;28;20043;-77
2021/09/08 05:15:11;;;;;;;1.08;0.93;;;;;;;12.56;86.39;95833.03;5095434;28;20409;-77
2021/09/08 05:17:38;;;;;;;7.65;1.05;;;;;;;12.69;86.28;95832.84;5098609;28;20048;-78
2021/09/08 05:20:06;;;;;;;1.85;0.90;;;;;;;12.76;85.48;95823.13;5098010;28;20047;-76
2021/09/08 05:22:33;;;;;;;1.45;1.05;;;;;;;12.86;85.67;95833.06;5097995;28;20044;-77
2021/09/08 05:25:00;;;;;;;2.38;0.90;;;;;;;12.90;84.63;95822.97;5097205;28;20039;-77
2021/09/08 05:27:27;;;;;;;2.40;0.90;;;;;;;13.00;84.37;95828.50;5095542;28;20060;-77
2021/09/08 05:29:53;;;;;;;3.22;1.25;;;;;;;13.09;84.71;95821.09;5103242;28;20048;-77
2021/09/08 05:32:20;;;;;;;1.83;1.00;;;;;;;13.24;84.73;95825.94;5099042;28;20040;-77
2021/09/08 05:34:47;;;;;;;1.48;0.93;;;;;;;13.35;83.50;95823.38;5100234;28;20040;-77
2021/09/08 05:37:14;;;;;;;4.00;1.48;;;;;;;13.46;83.04;95827.06;5103545;28;20054;-77
2021/09/08 05:39:40;;;;;;;1.90;1.38;;;;;;;13.49;83.01;95816.13;5094887;28;20516;-77
2021/09/08 05:42:07;;;;;;;0.90;0.88;;;;;;;13.44;82.01;95807.38;5103412;28;20500;-77
2021/09/08 05:44:34;;;;;;;2.92;1.13;;;;;;;13.60;81.58;95816.41;5101071;28;20074;-77
2021/09/08 05:47:01;;;;;;;4.82;1.30;;;;;;;13.67;81.89;95806.63;5099042;28;20051;-77
2021/09/08 05:49:27;;;;;;;3.47;1.38;;;;;;;13.75;81.71;95809.69;5101340;28;20455;-77
2021/09/08 05:51:54;;;;;;;1.83;0.90;;;;;;;13.77;81.19;95801.59;5098697;28;20066;-76
2021/09/08 05:54:21;;;;;;;2.03;0.98;;;;;;;13.87;81.05;95807.06;5096952;28;20048;-76
2021/09/08 05:56:48;;;;;;;2.95;0.82;;;;;;;13.95;80.59;95798.91;5100819;28;20055;-77
2021/09/08 05:59:14;;;;;;;0.80;0.73;;;;;;;14.19;79.89;95804.13;5101543;27;20064;-77
2021/09/08 06:01:41;;;;;;;1.80;1.02;;;;;;;14.22;78.31;95803.63;5101744;28;20888;-77
2021/09/08 06:04:08;;;;;;;19.48;1.73;;;;;;;14.19;77.17;95798.88;5101362;28;20075;-77
2021/09/08 06:06:35;;;;;;;1.90;1.10;;;;;;;14.32;77.90;95809.09;5102761;28;20451;-77
2021/09/08 06:09:03;;;;;;;1.30;1.10;;;;;;;14.37;75.69;95805.81;5102055;28;20434;-76
2021/09/08 06:11:29;;;;;;;1.90;1.20;;;;;;;14.50;74.80;95796.88;5100268;28;20413;-77
2021/09/08 06:13:56;;;;;;;1.27;1.08;;;;;;;14.52;74.21;95798.25;5095549;28;20126;-76
2021/09/08 06:16:23;;;;;;;1.85;1.02;;;;;;;14.54;73.80;95800.63;5097852;27;20105;-77
2021/09/08 06:18:50;;;;;;;1.27;0.73;;;;;;;14.52;72.92;95808.72;5093280;28;20036;-76
2021/09/08 06:21:17;;;;;;;1.25;0.95;;;;;;;14.64;72.80;95800.88;5100896;28;20048;-77
2021/09/08 06:23:44;;;;;;;2.40;1.00;;;;;;;14.79;72.47;95796.94;5099493;28;20043;-75
2021/09/08 06:26:11;;;;;;;1.40;0.93;;;;;;;14.83;73.22;95798.06;5098031;28;20047;-76
2021/09/08 06:28:38;;;;;;;1.55;1.42;;;;;;;14.91;71.76;95805.56;5101035;27;20040;-76
2021/09/08 06:31:05;;;;;;;1.10;0.85;;;;;;;15.01;70.43;95805.75;5099218;28;20096;-75
2021/09/08 06:33:31;;;;;;;3.08;1.60;;;;;;;14.98;70.31;95801.00;5101767;28;20129;-75
2021/09/08 06:35:58;;;;;;;1.60;0.85;;;;;;;14.94;70.29;95799.84;5101283;28;20039;-75
2021/09/08 06:38:25;;;;;;;4.32;1.00;;;;;;;15.05;70.39;95806.88;5098280;27;20517;-75
2021/09/08 06:40:53;;;;;;;5.32;1.00;;;;;;;15.07;70.48;95804.81;5092074;28;20110;-75
2021/09/08 06:43:20;;;;;;;2.72;1.00;;;;;;;15.21;70.30;95807.94;5097158;28;20044;-75
2021/09/08 06:45:47;;;;;;;7.28;1.00;;;;;;;15.40;70.49;95813.78;5099750;28;20087;-75
2021/09/08 06:48:14;;;;;;;1.23;0.70;;;;;;;15.23;69.61;95812.94;5099282;28;20039;-75
2021/09/08 06:50:40;;;;;;;2.10;0.95;;;;;;;15.26;70.75;95802.78;5105932;28;20037;-74
2021/09/08 06:53:07;;;;;;;1.50;0.65;;;;;;;15.39;70.92;95821.88;5102691;28;20416;-74
2021/09/08 06:55:34;;;;;;;1.02;0.60;;;;;;;15.39;70.35;95822.69;5100577;28;20104;-75
2021/09/08 06:58:01;;;;;;;1.98;1.80;;;;;;;15.35;69.37;95820.78;5101022;28;20471;-74
2021/09/08 07:00:28;;;;;;;2.15;0.73;;;;;;;15.55;70.18;95826.34;5100413;28;20511;-74
2021/09/08 07:02:54;;;;;;;0.85;0.70;;;;;;;15.72;71.06;95821.13;5097865;28;20097;-75
2021/09/08 07:05:21;;;;;;;2.08;1.17;;;;;;;15.77;69.33;95816.00;5096353;28;20044;-74
2021/09/08 07:07:48;;;;;;;1.30;0.82;;;;;;;15.89;68.57;95815.09;5097766;28;20040;-74
2021/09/08 07:10:15;;;;;;;0.93;0.73;;;;;;;16.06;67.60;95818.50;5106027;28;20524;-74
2021/09/08 07:12:43;;;;;;;0.90;0.80;;;;;;;16.09;68.49;95820.66;5102433;28;20043;-75
2021/09/08 07:15:10;;;;;;;1.38;0.75;;;;;;;16.07;67.01;95820.09;5100879;28;20093;-74
2021/09/08 07:17:37;;;;;;;1.05;0.70;;;;;;;16.15;69.00;95809.19;5099331;28;20096;-75
2021/09/08 07:20:05;;;;;;;1.17;0.90;;;;;;;16.38;66.82;95829.19;5099231;28;20039;-75
2021/09/08 07:22:31;;;;;;;2.10;0.60;;;;;;;16.29;66.28;95814.09;5096070;28;20051;-75
2021/09/08 07:24:58;;;;;;;1.08;0.75;;;;;;;16.52;66.37;95827.00;5100263;28;20459;-74
2021/09/08 07:27:26;;;;;;;1.40;0.88;;;;;;;16.53;64.93;95825.97;5100586;28;20040;-75
2021/09/08 07:29:53;;;;;;;1.30;0.95;;;;;;;16.83;66.10;95827.41;5098944;28;20472;-75
2021/09/08 07:32:20;;;;;;;1.15;0.88;;;;;;;17.03;64.25;95833.94;5096062;28;20036;-74
2021/09/08 07:34:46;;;;;;;1.85;0.93;;;;;;;17.06;64.58;95812.41;5102039;28;20466;-74
2021/09/08 07:37:13;;;;;;;1.20;0.80;;;;;;;17.24;62.72;95835.75;5099208;28;20048;-75
2021/09/08 07:39:40;;;;;;;1.63;0.95;;;;;;;17.33;64.22;95833.47;5097924;28;20397;-75
2021/09/08 07:42:06;;;;;;;2.30;0.90;;;;;;;17.15;61.48;95843.28;5100547;28;20040;-74
2021/09/08 07:44:33;;;;;;;1.27;0.47;;;;;;;17.18;62.17;95831.47;5095580;28;20032;-75
2021/09/08 07:47:00;;;;;;;1.90;1.10;;;;;;;17.29;61.66;95833.16;5098110;28;20044;-74
2021/09/08 07:49:27;;;;;;;1.65;1.25;;;;;;;17.41;61.56;95834.84;5097076;28;20040;-75
2021/09/08 07:51:54;;;;;;;7.13;3.63;;;;;;;17.64;62.33;95834.53;5103462;28;20501;-75
2021/09/08 07:54:20;;;;;;;4.90;2.00;;;;;;;17.81;59.64;95829.16;5098683;28;20040;-75
2021/09/08 07:56:47;;;;;;;3.45;1.42;;;;;;;17.87;60.82;95827.38;5094273;28;20447;-75
2021/09/08 07:59:14;;;;;;;1.67;0.80;;;;;;;18.03;59.70;95839.59;5095907;28;20459;-74
2021/09/08 08:01:41;;;;;;;3.45;0.70;;;;;;;17.87;59.20;95824.72;5100354;28;20480;-75
2021/09/08 08:04:10;;;;;;;1.52;0.85;;;;;;;17.81;60.15;95828.31;5101864;28;20055;-75
2021/09/08 08:06:38;;;;;;;1.83;1.35;;;;;;;17.87;60.29;95832.63;5094054;28;20101;-74
2021/09/08 08:09:05;;;;;;;2.40;1.27;;;;;;;17.88;56.86;95829.75;5097261;28;21600;-75
2021/09/08 08:11:33;;;;;;;1.30;0.77;;;;;;;18.20;57.32;95830.75;5098905;28;20050;-75
2021/09/08 08:14:00;;;;;;;3.92;1.65;;;;;;;18.28;57.41;95827.66;5101056;28;20032;-74
2021/09/08 08:16:32;;;;;;;1.15;0.80;;;;;;;18.45;56.00;95822.19;5100154;28;20176;-75
2021/09/08 08:19:00;;;;;;;1.73;0.75;;;;;;;18.73;56.64;95824.41;5097287;28;20055;-74
2021/09/08 08:21:27;;;;;;;2.13;0.95;;;;;;;18.88;56.15;95821.06;5096457;28;20479;-74
2021/09/08 08:23:54;;;;;;;2.65;1.35;;;;;;;19.19;54.55;95815.88;5099656;28;20132;-75
2021/09/08 08:26:22;;;;;;;1.63;0.75;;;;;;;19.17;55.13;95817.97;5097495;28;20074;-74
2021/09/08 08:28:51;;;;;;;0.50;0.40;;;;;;;19.22;51.81;95820.63;5105295;28;20054;-75
2021/09/08 08:31:18;;;;;;;1.85;1.48;;;;;;;19.18;51.97;95824.88;5097911;28;20032;-75
2021/09/08 08:33:48;;;;;;;2.38;1.10;;;;;;;19.11;52.32;95819.03;5095931;28;20089;-74
2021/09/08 08:36:16;;;;;;;1.08;0.80;;;;;;;19.15;52.43;95814.81;5098132;28;20489;-75
2021/09/08 08:38:44;;;;;;;0.98;0.68;;;;;;;19.00;53.93;95814.78;5096282;28;20043;-75
2021/09/08 08:41:11;;;;;;;1.05;0.82;;;;;;;19.43;50.70;95815.41;5099674;28;20032;-75
2021/09/08 08:43:40;;;;;;;1.58;0.90;;;;;;;19.71;49.31;95821.22;5097628;28;20630;-75
2021/09/08 08:49:32;;;;;;;1.17;1.05;;;;;;;20.04;48.11;95828.63;5124817;27;20136;-76
2021/09/08 08:51:59;;;;;;;2.05;0.80;;;;;;;20.27;48.87;95813.25;5127758;27;20043;-76
2021/09/08 08:54:26;;;;;;;1.55;0.88;;;;;;;20.24;48.76;95819.88;5129409;27;20039;-76
2021/09/08 08:56:53;;;;;;;0.73;0.52;;;;;;;20.33;50.79;95817.47;5126173;27;20038;-76
2021/09/08 08:59:20;;;;;;;2.75;1.02;;;;;;;20.47;48.16;95808.97;5128649;27;20036;-77
2021/09/08 09:01:46;;;;;;;1.15;0.82;;;;;;;20.71;48.47;95807.31;5127109;27;20397;-77
2021/09/08 09:04:14;;;;;;;0.90;0.52;;;;;;;21.07;46.70;95799.22;5105695;27;20044;-76
2021/09/08 09:06:42;;;;;;;1.33;0.80;;;;;;;21.35;45.92;95804.84;5128677;27;20035;-77
2021/09/08 09:09:15;;;;;;;0.90;0.70;;;;;;;21.27;44.04;95802.81;5130333;27;20036;-77
2021/09/08 09:11:44;;;;;;;2.80;0.98;;;;;;;20.72;43.04;95803.59;5125837;27;20043;-77
2021/09/08 09:14:12;;;;;;;0.88;0.55;;;;;;;20.87;43.91;95789.53;5128738;27;20043;-77
2021/09/08 09:16:41;;;;;;;2.58;1.67;;;;;;;21.09;43.81;95799.72;5128538;27;20513;-76
2021/09/08 09:19:09;;;;;;;0.65;0.30;;;;;;;20.94;42.94;95799.78;5126164;27;20043;-77
2021/09/08 09:21:37;;;;;;;3.13;1.10;;;;;;;21.22;45.31;95779.78;5108281;27;20044;-77
2021/09/08 09:24:07;;;;;;;2.08;0.57;;;;;;;21.15;43.19;95790.66;5126788;27;20047;-77
2021/09/08 09:26:39;;;;;;;1.90;0.63;;;;;;;21.08;42.58;95784.88;5126463;27;20062;-78
2021/09/08 09:29:10;;;;;;;1.08;0.60;;;;;;;21.33;42.51;95791.09;5128234;27;20128;-77
2021/09/08 09:31:54;;;;;;;1.67;1.20;;;;;;;21.62;43.83;95787.72;5124424;27;20031;-77
2021/09/08 09:34:21;;;;;;;1.10;0.70;;;;;;;21.52;43.65;95800.00;5126151;27;20523;-77
2021/09/08 09:36:53;;;;;;;0.50;0.32;;;;;;;21.68;41.71;95787.44;5128026;27;20084;-77
2021/09/08 09:39:22;;;;;;;2.47;1.17;;;;;;;21.55;43.78;95796.81;5127432;27;20632;-77
2021/09/08 09:41:49;;;;;;;0.95;0.50;;;;;;;21.54;42.42;95784.59;5127147;27;20043;-77
2021/09/08 09:44:16;;;;;;;0.70;0.50;;;;;;;22.02;42.73;95777.81;5126849;27;20046;-77
2021/09/08 09:46:46;;;;;;;0.88;0.57;;;;;;;21.89;41.60;95782.72;5126081;27;20043;-77
2021/09/08 09:49:14;;;;;;;1.35;0.57;;;;;;;22.21;42.12;95769.97;5125254;27;20075;-77
2021/09/08 09:51:41;;;;;;;4.95;1.08;;;;;;;22.05;41.70;95774.63;5128597;27;20043;-78
2021/09/08 09:54:09;;;;;;;1.65;1.13;;;;;;;21.83;41.56;95775.88;5127446;27;20043;-77
2021/09/08 09:56:36;;;;;;;0.52;0.38;;;;;;;21.88;42.43;95775.06;5125972;27;20036;-77
2021/09/08 09:59:03;;;;;;;1.48;0.82;;;;;;;21.82;40.79;95771.66;5121144;27;20054;-76
2021/09/08 10:01:30;;;;;;;0.70;0.40;;;;;;;21.52;42.25;95773.50;5110937;27;20051;-78
2021/09/08 10:03:57;;;;;;;1.08;0.52;;;;;;;21.62;42.61;95771.84;5110766;27;20088;-77
2021/09/08 10:06:25;;;;;;;1.33;0.80;;;;;;;21.77;42.36;95763.75;5109796;27;20047;-77
2021/09/08 10:08:58;;;;;;;1.42;0.68;;;;;;;21.90;42.18;95757.78;5111865;27;20043;-77
2021/09/08 10:11:33;;;;;;;1.63;0.80;;;;;;;22.20;42.40;95771.81;5110947;27;20043;-77
2021/09/08 10:14:12;;;;;;;1.73;0.70;;;;;;;22.57;42.20;95762.41;5110937;27;20052;-77
2021/09/08 10:16:44;;;;;;;1.08;0.50;;;;;;;22.38;41.12;95756.25;5114844;27;20523;-77
2021/09/08 10:19:11;;;;;;;1.13;0.73;;;;;;;22.43;40.42;95758.84;5110961;27;20031;-78
2021/09/08 10:21:44;;;;;;;1.80;0.82;;;;;;;22.71;42.53;95754.53;5115445;27;20035;-77
2021/09/08 10:24:11;;;;;;;0.75;0.60;;;;;;;22.77;40.18;95757.91;5111310;27;20405;-77
2021/09/08 10:26:38;;;;;;;1.52;0.60;;;;;;;22.35;42.46;95767.47;5113516;27;20039;-77
2021/09/08 10:29:07;;;;;;;1.05;0.60;;;;;;;22.27;39.04;95759.03;5114724;27;20077;-78
2021/09/08 10:31:49;;;;;;;4.65;0.80;;;;;;;22.15;39.44;95758.63;5109857;27;20122;-77
2021/09/08 10:34:17;;;;;;;1.63;0.82;;;;;;;22.15;41.57;95753.31;5107550;27;20390;-77
2021/09/08 10:36:44;;;;;;;0.77;0.45;;;;;;;22.01;42.80;95757.69;5112645;27;20043;-77
2021/09/08 10:39:16;;;;;;;1.75;0.60;;;;;;;22.83;39.95;95751.44;5115467;27;20038;-77
2021/09/08 10:41:46;;;;;;;1.17;0.60;;;;;;;22.89;39.81;95750.31;5109647;27;20035;-77
2021/09/08 10:44:15;;;;;;;1.25;0.70;;;;;;;23.13;40.90;95744.16;5112981;27;20101;-77
2021/09/08 10:46:59;;;;;;;1.25;0.93;;;;;;;22.79;40.91;95755.75;5110824;27;20374;-77
2021/09/08 10:49:41;;;;;;;1.00;0.57;;;;;;;22.44;40.27;95763.09;5110847;27;20489;-78
2021/09/08 10:52:34;;;;;;;0.50;0.50;;;;;;;22.45;42.47;95762.00;5115700;27;20046;-77
2021/09/08 10:55:01;;;;;;;1.35;1.00;;;;;;;22.55;41.64;95748.63;5119356;27;20055;-77
2021/09/08 10:57:49;;;;;;;0.98;0.70;;;;;;;22.61;41.79;95771.38;5121184;27;20420;-77
2021/09/08 11:00:26;;;;;;;1.25;0.70;;;;;;;22.75;41.34;95754.75;5101697;28;20050;-77
2021/09/08 11:02:53;;;;;;;1.98;0.90;;;;;;;22.22;41.60;95763.56;5106980;28;20047;-77
2021/09/08 11:05:21;;;;;;;1.02;0.65;;;;;;;22.10;42.82;95771.94;5106169;28;20054;-77
2021/09/08 11:07:50;;;;;;;1.13;0.57;;;;;;;22.37;40.09;95760.00;5118956;27;20158;-77
2021/09/08 11:10:31;;;;;;;2.15;1.08;;;;;;;22.98;40.05;95758.44;5117805;27;20473;-77
2021/09/08 11:13:01;;;;;;;1.85;0.80;;;;;;;23.01;40.00;95756.00;5111917;27;20039;-74
2021/09/08 11:15:32;;;;;;;4.50;0.60;;;;;;;23.10;41.08;95750.81;5123861;27;20492;-74
2021/09/08 11:17:59;;;;;;;0.90;0.70;;;;;;;23.43;40.19;95749.00;5098390;27;20427;-75
2021/09/08 11:20:26;;;;;;;2.45;1.65;;;;;;;23.62;39.03;95745.50;5095165;27;20035;-74
2021/09/08 11:23:00;;;;;;;1.48;0.80;;;;;;;23.36;39.89;95743.28;5121149;27;20467;-75
2021/09/08 11:25:31;;;;;;;;;;;;;;;23.40;41.16;95746.94;5126715;27;20092;-74
2021/09/08 11:27:59;;;;;;;1.35;0.82;;;;;;;23.28;39.47;95735.94;5126556;27;19919;-75
2021/09/08 11:30:38;;;;;;;1.58;0.80;;;;;;;23.34;38.96;95740.13;5109838;27;20062;-75
2021/09/08 11:33:07;;;;;;;1.20;0.98;;;;;;;23.34;38.93;95745.44;5112845;27;20043;-74
2021/09/08 11:35:38;;;;;;;1.05;0.65;;;;;;;23.39;41.21;95748.03;5110847;27;20051;-75
2021/09/08 11:38:17;;;;;;;5.50;0.90;;;;;;;23.76;38.03;95741.03;5106487;27;20065;-75
2021/09/08 11:40:47;;;;;;;0.80;0.52;;;;;;;23.88;36.87;95737.13;5122822;27;20046;-75